Coronel Oviedo, Paraguay
Current Conditions -  °F | °C
As of 7:00 PM on Friday 19 Dec 2014 (Local Time) from SGAS Reporting Station
Few Clouds Few Clouds  
Wind Chill: 90°   Ceiling: Unl
Heat Index: 100°   Visibility: 6mi
Dew Point: 75°   Wind: 3mph
Humidity: 62%   Direction: 30°NNE
Pressure: 29.59"   Gusts: NA
Location:  25.45°S, 56.44°W
Report Text: SGAS 192200Z 03003KT 9999 FEW040 32/24 Q1002
Loading
Personal Weather Stations






























Interactive Weather Map New forecast layout! Learn more

10-Day Weather Forecast

Advertisements
Track Severe Weather on mobile